Time;durP1;ratioP1;P1;durP2;ratioP2;P2;SDS_P1;SDS_P2;PMS_P1;PMS_P2;Temp;Humidity;BMP_temperature;BMP_pressure;BME280_temperature;BME280_humidity;BME280_pressure;Samples;Min_cycle;Max_cycle;Signal;HPM_P1;HPM_P2
2023/01/27 00:00:26;;;;;;;0.50;0.50;;;;;;;5.18;100.00;96154.72;5004373;28;20509;-56
2023/01/27 00:02:53;;;;;;;0.98;0.98;;;;;;;5.07;100.00;96152.88;5002700;28;20501;-56
2023/01/27 00:05:21;;;;;;;3.40;1.95;;;;;;;4.64;100.00;96075.06;5004474;28;20519;-61
2023/01/27 00:07:48;;;;;;;0.50;0.50;;;;;;;5.33;100.00;96194.25;5003749;28;20054;-61
2023/01/27 00:10:18;;;;;;;0.50;0.50;;;;;;;5.32;100.00;96192.69;5002971;28;20064;-62
2023/01/27 00:15:33;;;;;;;0.50;0.50;;;;;;;5.37;100.00;96162.22;5004252;28;20081;-57
2023/01/27 00:18:00;;;;;;;0.50;0.50;;;;;;;5.49;100.00;96170.31;5004312;28;20054;-60
2023/01/27 00:26:00;;;;;;;0.50;0.50;;;;;;;5.39;100.00;96171.66;5004002;28;20623;-61
2023/01/27 00:28:30;;;;;;;1.15;0.95;;;;;;;5.49;100.00;96175.81;5003657;28;20084;-56
2023/01/27 00:30:57;;;;;;;0.50;0.50;;;;;;;5.49;100.00;96171.13;5004012;28;20556;-60
2023/01/27 00:33:26;;;;;;;0.50;0.50;;;;;;;5.33;100.00;96145.66;5004234;28;20057;-56
2023/01/27 00:35:59;;;;;;;0.50;0.50;;;;;;;5.44;100.00;96162.34;5004447;28;20437;-61
2023/01/27 00:38:28;;;;;;;0.50;0.50;;;;;;;5.44;100.00;96167.84;5002886;28;20084;-56
2023/01/27 00:43:40;;;;;;;0.50;0.50;;;;;;;5.40;100.00;96158.75;5004062;28;20168;-61
2023/01/27 00:46:07;;;;;;;0.63;0.63;;;;;;;5.46;100.00;96154.56;5002717;28;20088;-61
2023/01/27 00:48:35;;;;;;;1.75;1.10;;;;;;;5.25;100.00;96116.44;5003913;28;20069;-61
2023/01/27 00:51:01;;;;;;;0.50;0.50;;;;;;;5.05;100.00;96089.31;5003640;28;20077;-56
2023/01/27 00:53:28;;;;;;;0.50;0.50;;;;;;;5.47;100.00;96161.66;5001974;28;20046;-61
2023/01/27 00:55:57;;;;;;;0.50;0.50;;;;;;;5.33;100.00;96142.91;5004188;28;20575;-56
2023/01/27 00:58:27;;;;;;;2.42;0.88;;;;;;;5.27;100.00;96135.31;5002872;28;20045;-57
2023/01/27 01:00:55;;;;;;;0.55;0.55;;;;;;;4.71;100.00;96057.19;4984344;28;20496;-61
2023/01/27 01:03:22;;;;;;;0.50;0.50;;;;;;;4.87;100.00;96093.63;4990558;28;20112;-62
2023/01/27 01:05:49;;;;;;;1.42;0.55;;;;;;;4.77;100.00;96105.13;5006071;28;20050;-61
2023/01/27 01:08:16;;;;;;;0.50;0.50;;;;;;;4.91;100.00;96117.25;5007044;28;20073;-56
2023/01/27 01:10:43;;;;;;;0.60;0.60;;;;;;;4.79;100.00;96108.31;5007600;28;20081;-56
2023/01/27 01:13:13;;;;;;;0.80;0.80;;;;;;;4.94;100.00;96143.16;5005794;28;20054;-61
2023/01/27 01:15:41;;;;;;;0.50;0.50;;;;;;;4.79;100.00;96130.25;5005785;28;20073;-61
2023/01/27 01:18:09;;;;;;;0.45;0.45;;;;;;;4.97;100.00;96142.44;5005977;28;20062;-58
2023/01/27 01:20:43;;;;;;;0.50;0.50;;;;;;;4.89;100.00;96135.19;5007006;28;20100;-62
2023/01/27 01:23:11;;;;;;;1.20;1.20;;;;;;;4.50;100.00;96069.22;5007292;28;20135;-61
2023/01/27 01:25:38;;;;;;;0.52;0.52;;;;;;;4.86;100.00;96119.44;5007476;28;20100;-56
2023/01/27 01:28:06;;;;;;;0.60;0.60;;;;;;;4.78;100.00;96113.00;5007399;28;20136;-61
2023/01/27 01:30:34;;;;;;;0.43;0.43;;;;;;;4.62;100.00;96104.00;5007375;28;20580;-58
2023/01/27 01:33:02;;;;;;;0.55;0.55;;;;;;;4.64;100.00;96086.03;5006952;28;20046;-56
2023/01/27 01:35:29;;;;;;;0.50;0.50;;;;;;;4.58;100.00;96087.44;5007212;28;20119;-61
2023/01/27 01:37:56;;;;;;;0.40;0.40;;;;;;;4.57;100.00;96091.34;5007153;28;20053;-56
2023/01/27 01:40:24;;;;;;;0.50;0.50;;;;;;;4.47;100.00;96056.22;5007124;28;20058;-57
2023/01/27 01:43:10;;;;;;;0.50;0.50;;;;;;;4.78;100.00;96068.31;5005419;28;20054;-56
2023/01/27 01:45:52;;;;;;;0.50;0.50;;;;;;;4.80;100.00;96061.34;5006373;28;20598;-61
2023/01/27 01:48:25;;;;;;;0.50;0.50;;;;;;;4.80;100.00;96055.03;5007108;28;20057;-61
2023/01/27 01:51:00;;;;;;;0.50;0.50;;;;;;;4.85;100.00;96052.03;5005042;28;20089;-56
2023/01/27 01:53:57;;;;;;;0.50;0.50;;;;;;;4.75;100.00;96052.56;5005201;28;20093;-58
2023/01/27 01:56:29;;;;;;;0.68;0.68;;;;;;;4.79;100.00;96069.91;5006798;28;20422;-57
2023/01/27 01:59:00;;;;;;;0.47;0.47;;;;;;;4.73;100.00;96061.16;5006486;28;20082;-56
2023/01/27 02:01:27;;;;;;;0.50;0.50;;;;;;;4.71;100.00;96062.69;5006565;28;20437;-56
2023/01/27 02:03:59;;;;;;;0.50;0.50;;;;;;;4.72;100.00;96064.25;5006156;28;20148;-62
2023/01/27 02:06:26;;;;;;;0.50;0.50;;;;;;;4.60;100.00;96076.94;5005181;28;20081;-61
2023/01/27 02:08:54;;;;;;;0.50;0.50;;;;;;;4.65;100.00;96054.72;5006075;28;20081;-56
2023/01/27 02:11:20;;;;;;;0.40;0.40;;;;;;;4.33;100.00;95998.31;5006285;28;20049;-55
2023/01/27 02:13:47;;;;;;;0.50;0.50;;;;;;;4.76;100.00;96048.69;5006404;28;20062;-56
2023/01/27 02:16:14;;;;;;;0.50;0.50;;;;;;;4.42;100.00;95985.25;5004219;28;20388;-61
2023/01/27 02:18:42;;;;;;;2.95;2.15;;;;;;;4.63;100.00;96018.63;5006354;28;20153;-56
2023/01/27 02:21:08;;;;;;;3.45;2.05;;;;;;;4.51;100.00;95999.56;5004871;28;20060;-56
2023/01/27 02:23:38;;;;;;;0.50;0.50;;;;;;;4.88;100.00;96046.63;5006277;28;20053;-56
2023/01/27 02:26:21;;;;;;;0.50;0.50;;;;;;;4.51;100.00;95961.16;5005914;28;20053;-56
2023/01/27 02:29:17;;;;;;;0.50;0.50;;;;;;;4.92;100.00;96024.72;5004897;28;20528;-61
2023/01/27 02:31:44;;;;;;;0.50;0.50;;;;;;;4.99;100.00;96024.91;5010093;28;20045;-56
2023/01/27 02:34:21;;;;;;;0.50;0.50;;;;;;;4.38;100.00;95948.72;5005837;28;20476;-56
2023/01/27 02:36:53;;;;;;;0.50;0.50;;;;;;;4.81;100.00;96029.19;5006624;28;20058;-61
2023/01/27 02:39:22;;;;;;;0.50;0.50;;;;;;;4.77;100.00;96034.63;5006171;28;20403;-62
2023/01/27 02:41:53;;;;;;;0.50;0.50;;;;;;;4.62;100.00;96017.03;5005621;28;20103;-57
2023/01/27 02:44:20;;;;;;;0.50;0.50;;;;;;;4.59;100.00;96011.47;5005983;28;20476;-57
2023/01/27 02:46:47;;;;;;;0.50;0.50;;;;;;;4.58;100.00;96013.41;5005638;28;20064;-56
2023/01/27 02:49:13;;;;;;;1.05;1.05;;;;;;;3.97;100.00;95919.19;5006010;28;20054;-60
2023/01/27 02:51:40;;;;;;;0.63;0.63;;;;;;;4.54;100.00;96012.53;5005038;28;20060;-61
2023/01/27 02:54:07;;;;;;;1.27;1.00;;;;;;;4.50;100.00;96003.44;5004397;28;20053;-56
2023/01/27 02:56:33;;;;;;;0.50;0.50;;;;;;;4.59;100.00;96006.78;5005415;28;20112;-57
2023/01/27 02:59:00;;;;;;;0.50;0.50;;;;;;;4.37;100.00;95971.00;5005488;28;20054;-56
2023/01/27 03:01:26;;;;;;;0.50;0.50;;;;;;;4.22;100.00;95966.38;5005154;28;20057;-56
2023/01/27 03:03:53;;;;;;;0.50;0.50;;;;;;;4.52;100.00;96011.31;5005576;28;20054;-55
2023/01/27 03:06:20;;;;;;;0.50;0.50;;;;;;;4.37;100.00;95991.00;5005011;28;20140;-56
2023/01/27 03:08:46;;;;;;;0.50;0.50;;;;;;;4.53;100.00;96018.38;5005326;28;20496;-56
2023/01/27 03:11:13;;;;;;;1.45;1.35;;;;;;;4.50;100.00;96022.63;5003693;28;20483;-61
2023/01/27 03:13:40;;;;;;;0.50;0.50;;;;;;;4.50;100.00;96014.38;5005806;28;20057;-61
2023/01/27 03:18:52;;;;;;;0.50;0.50;;;;;;;4.48;100.00;96010.44;5005508;28;20073;-62
2023/01/27 03:21:19;;;;;;;0.50;0.50;;;;;;;4.16;100.00;95960.34;5004862;28;20058;-61
2023/01/27 03:23:47;;;;;;;0.40;0.40;;;;;;;4.43;100.00;96003.28;5005270;28;20177;-61
2023/01/27 03:26:15;;;;;;;0.50;0.50;;;;;;;4.04;100.00;95954.19;5004401;28;20088;-62
2023/01/27 03:28:41;;;;;;;0.50;0.50;;;;;;;4.34;100.00;95994.47;5002859;28;20046;-62
2023/01/27 03:31:20;;;;;;;0.50;0.50;;;;;;;4.53;100.00;95996.44;5005032;28;20045;-61
2023/01/27 03:33:47;;;;;;;0.50;0.50;;;;;;;4.55;100.00;96005.13;5004871;28;20064;-57
2023/01/27 03:47:15;;;;;;;0.43;0.43;;;;;;;4.50;100.00;95997.94;5004717;28;20444;-54
2023/01/27 03:49:41;;;;;;;0.50;0.50;;;;;;;4.49;100.00;95995.56;5005047;28;20064;-60
2023/01/27 03:52:08;;;;;;;0.40;0.40;;;;;;;4.47;100.00;96009.63;5004033;28;20054;-54
2023/01/27 03:54:35;;;;;;;0.50;0.50;;;;;;;4.52;100.00;96014.84;5003158;28;20050;-55
2023/01/27 03:57:04;;;;;;;0.40;0.40;;;;;;;4.55;100.00;96005.91;5004851;28;20077;-54
2023/01/27 03:59:31;;;;;;;3.03;1.70;;;;;;;4.54;100.00;96009.81;5004869;28;20089;-60
2023/01/27 04:07:34;;;;;;;0.50;0.50;;;;;;;4.17;100.00;95964.66;5004254;28;20054;-60
2023/01/27 04:10:02;;;;;;;0.63;0.63;;;;;;;4.12;100.00;95986.88;5003747;28;20139;-60
2023/01/27 04:12:28;;;;;;;0.52;0.52;;;;;;;4.31;100.00;96005.34;5004065;28;20053;-60
2023/01/27 04:14:55;;;;;;;0.43;0.43;;;;;;;4.39;100.00;96007.88;5004255;28;20576;-60
2023/01/27 04:17:22;;;;;;;0.50;0.50;;;;;;;3.27;100.00;95846.28;5003907;28;20180;-55
2023/01/27 04:19:48;;;;;;;1.90;1.80;;;;;;;4.27;100.00;95977.84;5004828;28;20057;-60
2023/01/27 04:22:15;;;;;;;0.50;0.50;;;;;;;4.44;100.00;95987.63;5004414;28;20089;-56
2023/01/27 04:24:42;;;;;;;0.50;0.50;;;;;;;4.56;100.00;95996.53;5004605;28;20508;-61
2023/01/27 04:27:12;;;;;;;0.88;0.88;;;;;;;4.22;100.00;95947.94;5003853;28;20054;-57
2023/01/27 04:29:40;;;;;;;0.50;0.50;;;;;;;4.63;100.00;96002.16;5004446;28;20057;-55
2023/01/27 04:32:09;;;;;;;0.47;0.47;;;;;;;4.62;100.00;96000.59;5003957;28;20050;-56
2023/01/27 04:34:37;;;;;;;1.23;1.23;;;;;;;4.74;100.00;95996.13;5002573;28;20206;-55
2023/01/27 04:37:05;;;;;;;0.55;0.55;;;;;;;4.77;100.00;96001.72;5003825;28;20058;-60
2023/01/27 04:39:33;;;;;;;7.05;2.97;;;;;;;4.75;100.00;95997.72;5005912;28;20084;-59
2023/01/27 04:42:00;;;;;;;0.73;0.73;;;;;;;4.24;100.00;95899.06;5007967;28;20053;-54
2023/01/27 04:44:27;;;;;;;0.50;0.50;;;;;;;4.68;100.00;95997.56;5008416;28;20073;-60
2023/01/27 04:46:53;;;;;;;0.93;0.93;;;;;;;4.52;100.00;95956.50;5008061;28;20432;-61
2023/01/27 04:49:21;;;;;;;0.50;0.50;;;;;;;4.68;100.00;95987.38;5008102;28;20104;-57
2023/01/27 04:51:47;;;;;;;1.80;1.67;;;;;;;4.25;100.00;95919.84;5007352;28;20484;-60
2023/01/27 04:54:14;;;;;;;0.50;0.50;;;;;;;2.55;100.00;95628.06;5008169;28;20081;-55
2023/01/27 04:56:53;;;;;;;0.50;0.50;;;;;;;4.62;100.00;95967.69;5007489;28;20058;-56
2023/01/27 04:59:20;;;;;;;0.50;0.50;;;;;;;4.53;100.00;95947.91;5008256;28;20103;-55
2023/01/27 05:01:47;;;;;;;0.50;0.50;;;;;;;4.73;100.00;95956.16;5007195;28;20054;-57
2023/01/27 05:04:13;;;;;;;0.50;0.50;;;;;;;4.67;100.00;95941.91;5007961;28;20475;-59
2023/01/27 05:06:40;;;;;;;1.27;1.17;;;;;;;4.77;100.00;95957.00;5007434;28;20058;-61
2023/01/27 05:09:06;;;;;;;0.40;0.40;;;;;;;4.72;100.00;95966.31;5005996;28;20100;-56
2023/01/27 05:11:33;;;;;;;6.22;5.75;;;;;;;4.75;100.00;95959.31;5006891;28;20531;-61
2023/01/27 05:14:00;;;;;;;6.22;2.78;;;;;;;4.71;100.00;95959.22;4999140;28;20508;-60
2023/01/27 05:16:26;;;;;;;0.63;0.63;;;;;;;4.11;100.00;95867.44;5005616;28;20096;-60
2023/01/27 05:18:53;;;;;;;1.23;1.23;;;;;;;4.75;100.00;95956.56;5007559;28;20431;-55
2023/01/27 05:21:22;;;;;;;0.80;0.80;;;;;;;4.69;100.00;95965.06;5007124;28;20053;-61
2023/01/27 05:23:49;;;;;;;4.22;2.78;;;;;;;4.71;100.00;95958.47;5005794;28;20050;-56
2023/01/27 05:26:22;;;;;;;0.60;0.60;;;;;;;4.69;100.00;95967.81;5006400;28;20141;-61
2023/01/27 05:28:50;;;;;;;0.50;0.50;;;;;;;4.63;100.00;95969.25;5002359;28;20338;-60
2023/01/27 05:31:28;;;;;;;0.50;0.50;;;;;;;4.61;100.00;95977.06;4987368;28;20088;-56
2023/01/27 05:33:57;;;;;;;1.17;1.05;;;;;;;4.64;100.00;95981.84;4987822;28;20061;-61
2023/01/27 05:36:24;;;;;;;1.75;1.75;;;;;;;4.52;100.00;95973.72;4987878;28;20078;-55
2023/01/27 05:38:52;;;;;;;0.50;0.50;;;;;;;4.55;100.00;95977.69;4986095;28;20529;-60
2023/01/27 05:41:19;;;;;;;0.50;0.50;;;;;;;3.94;100.00;95875.28;4987474;28;20059;-60
2023/01/27 05:43:51;;;;;;;0.60;0.60;;;;;;;4.47;100.00;95976.72;4994522;28;20050;-61
2023/01/27 05:46:20;;;;;;;0.73;0.73;;;;;;;3.74;100.00;95882.66;5006662;28;20121;-60
2023/01/27 05:48:49;;;;;;;0.50;0.50;;;;;;;4.44;100.00;95999.38;5007221;28;20127;-60
2023/01/27 05:51:18;;;;;;;0.50;0.50;;;;;;;4.19;100.00;95956.88;5005786;28;20065;-60
2023/01/27 05:53:46;;;;;;;0.50;0.50;;;;;;;4.59;100.00;95995.81;5006578;28;20579;-56
2023/01/27 05:56:15;;;;;;;1.02;1.02;;;;;;;4.53;100.00;96002.75;5006426;28;20588;-54
2023/01/27 05:58:42;;;;;;;1.25;1.20;;;;;;;4.47;100.00;95998.66;5007052;28;20050;-60
2023/01/27 06:01:11;;;;;;;2.22;2.05;;;;;;;4.20;100.00;95939.31;5006115;28;20092;-56
2023/01/27 06:03:39;;;;;;;0.90;0.90;;;;;;;4.58;100.00;95996.94;5006968;28;20061;-60
2023/01/27 06:06:07;;;;;;;0.50;0.50;;;;;;;4.32;100.00;95952.91;5004820;28;20080;-55
2023/01/27 06:08:35;;;;;;;4.97;2.25;;;;;;;4.57;100.00;96013.75;5006289;28;20096;-60
2023/01/27 06:11:02;;;;;;;0.60;0.60;;;;;;;4.52;100.00;95978.41;5006230;28;20069;-60
2023/01/27 06:13:29;;;;;;;0.50;0.50;;;;;;;4.57;100.00;96000.06;5006454;28;20050;-60
2023/01/27 06:15:56;;;;;;;0.50;0.50;;;;;;;4.04;100.00;95919.38;5004682;28;20049;-61
2023/01/27 06:18:23;;;;;;;0.50;0.50;;;;;;;4.20;100.00;95922.88;5005801;28;20085;-61
2023/01/27 06:20:49;;;;;;;0.50;0.50;;;;;;;4.59;100.00;95973.88;5005138;28;20061;-61
2023/01/27 06:23:16;;;;;;;0.65;0.65;;;;;;;4.75;100.00;96014.97;5005384;28;20311;-55
2023/01/27 06:25:48;;;;;;;0.60;0.60;;;;;;;4.65;100.00;96010.84;5004337;28;20534;-62
2023/01/27 06:28:16;;;;;;;0.50;0.50;;;;;;;4.66;100.00;96006.94;5005952;28;20112;-55
2023/01/27 06:30:55;;;;;;;0.50;0.50;;;;;;;4.65;100.00;96008.09;5009016;28;20530;-61
2023/01/27 06:33:22;;;;;;;0.50;0.50;;;;;;;4.62;100.00;96011.56;5013320;28;20153;-61
2023/01/27 06:35:48;;;;;;;1.40;1.08;;;;;;;4.69;100.00;96011.69;5005317;28;20084;-61
2023/01/27 06:38:15;;;;;;;0.50;0.50;;;;;;;4.23;100.00;95944.09;5005820;28;20137;-56
2023/01/27 06:40:42;;;;;;;0.50;0.50;;;;;;;4.40;100.00;95962.06;5005941;28;20525;-56
2023/01/27 06:43:13;;;;;;;0.50;0.50;;;;;;;4.64;100.00;96006.53;5005884;28;20050;-59
2023/01/27 06:45:40;;;;;;;1.35;1.35;;;;;;;4.60;100.00;96005.63;5006254;28;20061;-55
2023/01/27 06:48:07;;;;;;;0.50;0.50;;;;;;;4.33;100.00;95976.41;5005600;28;20484;-62
2023/01/27 06:50:35;;;;;;;0.50;0.50;;;;;;;4.73;100.00;96011.78;5005165;28;20507;-60
2023/01/27 06:53:06;;;;;;;0.50;0.50;;;;;;;4.75;100.00;96011.44;5004941;28;20097;-55
2023/01/27 06:55:34;;;;;;;0.50;0.50;;;;;;;4.66;100.00;96015.16;5005094;28;20045;-55
2023/01/27 06:58:01;;;;;;;0.60;0.60;;;;;;;4.33;100.00;95957.22;4999616;28;20129;-60
2023/01/27 07:00:28;;;;;;;0.77;0.77;;;;;;;4.66;100.00;96012.41;5000277;28;20430;-54
2023/01/27 07:02:55;;;;;;;3.67;1.63;;;;;;;4.59;100.00;95995.81;5003190;28;20148;-60
2023/01/27 07:05:23;;;;;;;1.27;1.17;;;;;;;4.19;100.00;95925.94;5000656;28;20049;-53
2023/01/27 07:07:50;;;;;;;0.50;0.50;;;;;;;4.45;100.00;95995.50;5004698;28;20505;-55
2023/01/27 07:10:17;;;;;;;2.28;2.13;;;;;;;4.74;100.00;96009.84;5004669;28;20531;-55
2023/01/27 07:12:43;;;;;;;1.92;1.17;;;;;;;4.76;100.00;96013.03;5002499;28;20109;-57
2023/01/27 07:15:11;;;;;;;2.67;2.60;;;;;;;4.58;100.00;95972.28;4984091;28;20081;-60
2023/01/27 07:17:37;;;;;;;3.65;3.45;;;;;;;4.74;100.00;96024.38;4986573;28;20046;-60
2023/01/27 07:20:06;;;;;;;1.20;1.20;;;;;;;4.89;100.00;96014.47;5001684;28;20521;-61
2023/01/27 07:22:33;;;;;;;1.60;1.52;;;;;;;4.96;100.00;96040.16;4985419;28;20054;-56
2023/01/27 07:25:01;;;;;;;0.70;0.70;;;;;;;5.06;100.00;96014.09;5004691;28;20053;-55
2023/01/27 07:27:28;;;;;;;0.50;0.50;;;;;;;5.19;100.00;96016.31;5003453;28;20046;-56
2023/01/27 07:29:55;;;;;;;2.25;2.05;;;;;;;5.29;100.00;96017.69;4992404;28;20050;-56
2023/01/27 07:32:21;;;;;;;13.68;4.95;;;;;;;5.26;100.00;96004.69;4984489;28;20062;-57
2023/01/27 07:34:48;;;;;;;1.05;1.05;;;;;;;4.97;100.00;95966.84;5003477;28;20053;-53
2023/01/27 07:37:15;;;;;;;0.50;0.50;;;;;;;5.38;100.00;96007.28;5001325;28;20057;-60
2023/01/27 07:39:42;;;;;;;0.50;0.50;;;;;;;5.09;100.00;95953.00;5003913;28;20046;-58
2023/01/27 07:42:09;;;;;;;1.40;1.08;;;;;;;5.40;100.00;96003.03;5004603;28;20058;-56
2023/01/27 07:44:35;;;;;;;0.57;0.57;;;;;;;5.52;100.00;96000.13;4999525;28;20136;-58
2023/01/27 07:47:02;;;;;;;0.60;0.60;;;;;;;5.25;100.00;95978.41;5000945;28;20455;-58
2023/01/27 07:49:29;;;;;;;0.50;0.50;;;;;;;5.47;100.00;95991.41;5002009;28;20073;-58
2023/01/27 07:51:55;;;;;;;0.60;0.60;;;;;;;5.59;100.00;95999.47;5003705;28;20062;-56
2023/01/27 07:54:24;;;;;;;8.30;2.83;;;;;;;5.55;100.00;95991.16;5002795;28;20104;-57
2023/01/27 07:56:50;;;;;;;18.63;6.53;;;;;;;5.61;100.00;95999.91;5002029;28;20136;-54
2023/01/27 07:59:17;;;;;;;0.70;0.70;;;;;;;5.43;100.00;95974.84;5003934;28;20058;-55
2023/01/27 08:01:44;;;;;;;1.25;1.20;;;;;;;4.94;100.00;95896.22;5002758;28;20161;-54
2023/01/27 08:04:13;;;;;;;2.25;2.15;;;;;;;5.40;100.00;95969.28;5002594;28;20104;-54
2023/01/27 08:06:40;;;;;;;1.08;1.08;;;;;;;5.21;100.00;95950.88;4985568;28;20157;-54
2023/01/27 08:09:06;;;;;;;0.57;0.57;;;;;;;5.47;100.00;95963.94;4996546;28;20582;-54
2023/01/27 08:11:33;;;;;;;4.32;1.77;;;;;;;5.59;100.00;95961.81;5001608;28;20495;-54
2023/01/27 08:14:00;;;;;;;0.95;0.95;;;;;;;5.57;100.00;95977.06;5002545;28;20050;-55
2023/01/27 08:16:28;;;;;;;0.65;0.65;;;;;;;3.40;100.00;95626.09;5002030;28;20382;-57
2023/01/27 08:18:55;;;;;;;0.73;0.73;;;;;;;5.66;100.00;95972.13;5000843;28;20083;-57
2023/01/27 08:21:24;;;;;;;1.67;1.58;;;;;;;5.70;100.00;95968.31;5003281;28;20111;-62
2023/01/27 08:23:52;;;;;;;0.50;0.50;;;;;;;5.41;100.00;95930.47;5003829;28;20076;-56
2023/01/27 08:26:19;;;;;;;7.55;7.15;;;;;;;5.67;100.00;95962.75;5000375;28;20050;-57
2023/01/27 08:28:46;;;;;;;0.52;0.52;;;;;;;5.58;100.00;95964.94;4995038;28;20473;-56
2023/01/27 08:31:15;;;;;;;0.60;0.60;;;;;;;4.95;100.00;95871.16;5004059;28;20472;-56
2023/01/27 08:33:44;;;;;;;0.75;0.75;;;;;;;5.17;100.00;95905.31;5002453;28;20049;-57
2023/01/27 08:36:13;;;;;;;0.50;0.50;;;;;;;5.46;100.00;95940.38;5002259;28;20045;-55
2023/01/27 08:38:41;;;;;;;0.50;0.50;;;;;;;5.17;100.00;95894.34;4998547;28;20124;-56
2023/01/27 08:41:13;;;;;;;0.60;0.60;;;;;;;5.62;100.00;95957.53;4999584;28;20042;-57
2023/01/27 08:43:40;;;;;;;1.02;1.02;;;;;;;5.59;100.00;95917.06;4997037;28;20077;-58
2023/01/27 08:46:08;;;;;;;1.35;1.25;;;;;;;5.74;100.00;95946.38;5006476;28;20050;-57
2023/01/27 08:48:36;;;;;;;2.72;2.45;;;;;;;5.77;100.00;95929.94;5004251;28;20054;-57
2023/01/27 08:51:05;;;;;;;1.90;1.02;;;;;;;5.91;100.00;95943.19;5002240;28;20058;-57
2023/01/27 08:53:32;;;;;;;0.60;0.60;;;;;;;5.72;100.00;95904.75;5002881;28;20146;-57
2023/01/27 08:56:04;;;;;;;0.50;0.50;;;;;;;5.93;100.00;95941.66;5001750;28;20527;-60
2023/01/27 08:58:32;;;;;;;0.52;0.52;;;;;;;5.98;100.00;95946.03;4999416;28;20074;-60
2023/01/27 09:01:01;;;;;;;0.50;0.50;;;;;;;5.86;100.00;95905.00;4987485;28;20086;-59
2023/01/27 09:03:32;;;;;;;0.70;0.70;;;;;;;5.68;100.00;95876.41;4993349;28;20046;-62
2023/01/27 09:05:59;;;;;;;0.90;0.90;;;;;;;6.14;100.00;95938.44;5006903;28;20050;-58
2023/01/27 09:08:27;;;;;;;0.50;0.50;;;;;;;6.02;100.00;95914.69;5011268;28;20124;-57
2023/01/27 09:10:54;;;;;;;1.45;1.45;;;;;;;5.86;100.00;95894.03;4999468;28;20050;-55
2023/01/27 09:13:23;;;;;;;1.88;1.77;;;;;;;6.36;100.00;95945.84;4996362;28;20057;-58
2023/01/27 09:15:51;;;;;;;0.50;0.50;;;;;;;5.87;100.00;95868.13;4996220;28;20054;-60
2023/01/27 09:18:18;;;;;;;0.88;0.88;;;;;;;6.01;100.00;95884.84;5002301;28;20409;-54
2023/01/27 09:20:45;;;;;;;0.65;0.65;;;;;;;5.99;100.00;95909.94;4998870;28;20046;-57
2023/01/27 09:23:12;;;;;;;0.95;0.90;;;;;;;6.42;100.00;95933.38;4999904;28;20500;-57
2023/01/27 09:25:39;;;;;;;0.60;0.60;;;;;;;5.65;100.00;95794.75;4999558;28;20513;-57
2023/01/27 09:28:11;;;;;;;0.60;0.60;;;;;;;6.12;100.00;95874.78;5017907;28;20120;-58
2023/01/27 09:30:37;;;;;;;1.02;1.02;;;;;;;6.62;100.00;95923.88;5006662;28;20049;-57
2023/01/27 09:33:07;;;;;;;0.60;0.60;;;;;;;6.40;100.00;95869.72;5006619;28;20069;-58
2023/01/27 09:35:44;;;;;;;0.60;0.60;;;;;;;5.86;100.00;95745.66;4995208;28;20132;-56
2023/01/27 09:38:15;;;;;;;0.50;0.50;;;;;;;7.00;100.00;95920.81;4993718;28;20053;-54
2023/01/27 09:41:06;;;;;;;6.97;6.57;;;;;;;7.12;100.00;95917.81;4998007;28;20050;-55
2023/01/27 09:44:03;;;;;;;0.80;0.80;;;;;;;6.73;100.00;95839.50;5000945;28;20042;-58
2023/01/27 09:46:32;;;;;;;0.60;0.60;;;;;;;7.24;100.00;95920.31;4996772;28;20413;-56
2023/01/27 09:49:21;;;;;;;4.43;4.22;;;;;;;7.39;100.00;95902.78;4999122;28;20053;-60
2023/01/27 09:51:59;;;;;;;0.60;0.60;;;;;;;7.41;100.00;95908.69;4996274;28;20442;-59
2023/01/27 09:54:38;;;;;;;8.63;2.65;;;;;;;7.45;100.00;95898.53;4994014;28;20061;-57
2023/01/27 09:57:20;;;;;;;3.15;3.05;;;;;;;7.54;100.00;95896.25;4985883;28;20108;-58
2023/01/27 10:00:24;;;;;;;0.70;0.70;;;;;;;7.57;100.00;95889.97;5003065;28;20066;-61
2023/01/27 10:03:16;;;;;;;0.60;0.60;;;;;;;7.61;100.00;95890.81;5000287;28;20053;-55
2023/01/27 10:05:51;;;;;;;0.60;0.60;;;;;;;7.70;100.00;95888.53;4986685;28;20107;-56
2023/01/27 10:08:46;;;;;;;0.70;0.70;;;;;;;7.88;100.00;95882.38;4994259;28;20073;-60
2023/01/27 10:11:35;;;;;;;0.80;0.80;;;;;;;7.64;100.00;95856.19;4986774;28;20062;-60
2023/01/27 10:14:10;;;;;;;1.23;1.23;;;;;;;7.99;100.00;95873.03;5000785;28;20053;-59
2023/01/27 10:17:13;;;;;;;0.93;0.93;;;;;;;8.33;100.00;95870.94;5005119;28;20124;-59
2023/01/27 10:19:49;;;;;;;0.70;0.70;;;;;;;8.58;100.00;95869.13;5001074;28;20073;-58
2023/01/27 10:22:34;;;;;;;4.32;1.77;;;;;;;8.66;100.00;95865.22;5005863;28;20050;-57
2023/01/27 10:25:30;;;;;;;1.70;1.65;;;;;;;8.57;100.00;95870.28;4995111;28;20508;-60
2023/01/27 10:28:01;;;;;;;0.75;0.75;;;;;;;8.21;100.00;95857.41;4993412;28;20077;-57
2023/01/27 10:30:36;;;;;;;0.77;0.77;;;;;;;8.25;100.00;95858.28;5004550;28;20091;-54
2023/01/27 10:33:06;;;;;;;0.70;0.70;;;;;;;7.55;100.00;95808.88;5005210;28;20050;-56
2023/01/27 10:35:51;;;;;;;0.70;0.70;;;;;;;8.19;100.00;95857.03;5005626;28;20104;-53
2023/01/27 10:38:36;;;;;;;4.03;3.75;;;;;;;8.32;100.00;95847.28;5004588;28;20517;-55
2023/01/27 10:41:11;;;;;;;0.70;0.70;;;;;;;8.24;100.00;95849.19;5005069;28;20449;-54
2023/01/27 10:43:45;;;;;;;4.00;3.72;;;;;;;8.21;100.00;95829.84;5000035;28;20428;-54
2023/01/27 10:46:20;;;;;;;0.63;0.63;;;;;;;8.31;100.00;95834.66;5003834;28;20061;-56
2023/01/27 10:48:54;;;;;;;0.70;0.70;;;;;;;8.06;100.00;95804.13;5005478;28;20049;-55
2023/01/27 10:51:28;;;;;;;0.70;0.70;;;;;;;8.30;100.00;95803.53;5001798;28;20053;-55
2023/01/27 10:54:23;;;;;;;0.70;0.70;;;;;;;8.50;100.00;95826.09;4996440;28;20054;-55
2023/01/27 10:57:04;;;;;;;0.73;0.73;;;;;;;8.26;100.00;95760.53;4985740;28;20124;-55
2023/01/27 10:59:39;;;;;;;0.68;0.68;;;;;;;8.55;100.00;95822.97;5002009;28;20496;-58
2023/01/27 11:02:08;;;;;;;0.70;0.70;;;;;;;8.54;100.00;95815.84;4994380;28;20136;-53
2023/01/27 11:04:43;;;;;;;0.60;0.60;;;;;;;8.66;100.00;95815.53;5002035;28;20053;-56
2023/01/27 11:07:21;;;;;;;0.70;0.70;;;;;;;8.58;100.00;95811.16;5002722;28;20053;-58
2023/01/27 11:09:55;;;;;;;0.70;0.70;;;;;;;8.67;100.00;95804.09;4994026;28;20199;-59
2023/01/27 11:12:33;;;;;;;0.80;0.80;;;;;;;8.71;100.00;95798.59;4985056;28;20113;-55
2023/01/27 11:15:22;;;;;;;0.70;0.70;;;;;;;8.85;100.00;95798.66;4985302;28;20050;-55
2023/01/27 11:17:56;;;;;;;0.70;0.70;;;;;;;8.76;100.00;95795.44;4986444;28;20080;-58
2023/01/27 11:20:30;;;;;;;1.90;1.80;;;;;;;8.79;100.00;95767.88;5003570;28;20076;-54
2023/01/27 11:23:06;;;;;;;0.80;0.80;;;;;;;8.96;100.00;95793.97;5004507;28;20432;-55
2023/01/27 11:25:41;;;;;;;0.70;0.70;;;;;;;9.03;100.00;95794.75;4999410;28;20058;-60
2023/01/27 11:28:08;;;;;;;0.70;0.70;;;;;;;9.07;100.00;95794.78;5004506;28;20054;-62
2023/01/27 11:30:45;;;;;;;0.90;0.90;;;;;;;8.75;100.00;95755.22;5000290;28;20402;-54
2023/01/27 11:33:27;;;;;;;0.70;0.70;;;;;;;8.36;100.00;95674.28;5004442;28;20136;-59
2023/01/27 11:35:53;;;;;;;0.70;0.70;;;;;;;9.18;100.00;95795.59;5004012;28;20116;-58
2023/01/27 11:38:22;;;;;;;0.70;0.70;;;;;;;9.29;100.00;95790.88;5002082;28;20104;-56
2023/01/27 11:40:51;;;;;;;0.80;0.80;;;;;;;9.34;100.00;95781.41;4990153;28;20108;-59
2023/01/27 11:43:22;;;;;;;1.52;1.52;;;;;;;9.07;100.00;95701.63;5003610;28;20050;-60
2023/01/27 11:45:57;;;;;;;0.90;0.90;;;;;;;9.16;100.00;95715.06;4998636;28;20139;-55
2023/01/27 11:48:27;;;;;;;0.70;0.70;;;;;;;8.26;100.00;95571.03;5000111;28;20074;-59
2023/01/27 11:50:54;;;;;;;0.93;0.93;;;;;;;9.51;100.00;95770.38;5004195;28;20140;-60
2023/01/27 11:53:35;;;;;;;3.83;3.53;;;;;;;9.48;99.91;95778.66;5003561;28;20053;-55
2023/01/27 11:56:07;;;;;;;0.80;0.80;;;;;;;9.50;100.00;95777.06;4998527;28;20054;-61
2023/01/27 11:58:49;;;;;;;0.80;0.80;;;;;;;9.41;100.00;95776.66;5003949;28;20072;-59
2023/01/27 12:01:20;;;;;;;1.30;1.20;;;;;;;9.39;100.00;95773.50;5002297;28;20488;-54
2023/01/27 12:04:20;;;;;;;0.80;0.80;;;;;;;9.46;100.00;95779.06;4995993;28;20056;-56
2023/01/27 12:06:54;;;;;;;1.42;1.02;;;;;;;9.26;100.00;95791.66;4983804;28;20054;-57
2023/01/27 12:09:30;;;;;;;0.70;0.70;;;;;;;9.28;100.00;95786.50;4989091;28;20321;-54
2023/01/27 12:12:09;;;;;;;0.70;0.70;;;;;;;9.32;100.00;95779.03;4984203;28;20137;-56
2023/01/27 12:14:36;;;;;;;5.13;3.17;;;;;;;8.76;100.00;95707.13;5003121;28;20124;-55
2023/01/27 12:17:06;;;;;;;0.85;0.85;;;;;;;8.87;100.00;95752.09;5003868;28;20119;-61
2023/01/27 12:19:40;;;;;;;0.80;0.80;;;;;;;9.02;100.00;95764.78;5000940;28;20049;-56